createdAt,value
2019-03-15T00:01:44.485Z,2.27
2019-03-15T00:04:13.518Z,2.40
2019-03-15T00:06:42.525Z,3.50
2019-03-15T00:09:11.528Z,2.47
2019-03-15T00:11:40.497Z,2.93
2019-03-15T00:14:09.445Z,2.50
2019-03-15T00:16:38.547Z,2.47
2019-03-15T00:19:07.548Z,2.80
2019-03-15T00:21:36.526Z,2.47
2019-03-15T00:24:05.487Z,2.70
2019-03-15T00:26:34.444Z,3.00
2019-03-15T00:29:03.540Z,2.50
2019-03-15T00:31:32.593Z,2.97
2019-03-15T00:34:01.776Z,2.37
2019-03-15T00:36:31.253Z,3.70
2019-03-15T00:39:00.365Z,2.13
2019-03-15T00:41:29.726Z,3.03
2019-03-15T00:43:58.891Z,2.70
2019-03-15T00:46:27.959Z,4.10
2019-03-15T00:48:57.040Z,3.83
2019-03-15T00:51:26.115Z,2.60
2019-03-15T00:53:55.288Z,3.00
2019-03-15T00:56:24.317Z,2.90
2019-03-15T00:58:53.448Z,2.70
2019-03-15T01:01:22.591Z,2.70
2019-03-15T01:03:51.748Z,3.20
2019-03-15T01:06:20.730Z,2.50
2019-03-15T01:08:49.800Z,3.33
2019-03-15T01:11:18.843Z,2.60
2019-03-15T01:13:47.994Z,3.13
2019-03-15T01:16:17.081Z,2.13
2019-03-15T01:18:46.199Z,4.43
2019-03-15T01:21:15.287Z,3.23
2019-03-15T01:23:44.307Z,2.70
2019-03-15T01:26:13.744Z,2.83
2019-03-15T01:28:42.895Z,3.20
2019-03-15T01:31:11.984Z,3.07
2019-03-15T01:33:40.991Z,3.20
2019-03-15T01:36:09.999Z,3.27
2019-03-15T01:38:39.086Z,3.20
2019-03-15T01:41:08.176Z,2.63
2019-03-15T01:43:38.451Z,2.90
2019-03-15T01:46:08.430Z,3.50
2019-03-15T01:48:37.530Z,3.30
2019-03-15T01:51:06.639Z,3.63
2019-03-15T01:53:35.733Z,4.17
2019-03-15T01:56:05.540Z,4.90
2019-03-15T01:58:34.713Z,4.03
2019-03-15T02:01:04.518Z,3.77
2019-03-15T02:03:33.799Z,4.57
2019-03-15T02:06:02.915Z,4.93
2019-03-15T02:08:31.996Z,4.77
2019-03-15T02:11:01.454Z,4.70
2019-03-15T02:13:30.611Z,5.03
2019-03-15T02:15:59.826Z,4.67
2019-03-15T02:18:29.018Z,4.67
2019-03-15T02:20:58.071Z,4.70
2019-03-15T02:23:27.061Z,5.53
2019-03-15T02:25:56.197Z,4.93
2019-03-15T02:28:25.214Z,6.13
2019-03-15T02:30:54.276Z,4.60
2019-03-15T02:33:23.356Z,4.40
2019-03-15T02:35:52.401Z,4.70
2019-03-15T02:38:21.511Z,4.53
2019-03-15T02:40:50.511Z,4.97
2019-03-15T02:43:19.595Z,5.80
2019-03-15T02:45:48.616Z,4.80
2019-03-15T02:48:17.796Z,4.47
2019-03-15T02:50:46.966Z,4.60
2019-03-15T02:53:16.069Z,5.00
2019-03-15T02:55:45.205Z,4.40
2019-03-15T02:58:14.236Z,4.73
2019-03-15T03:00:46.742Z,5.13
2019-03-15T03:03:15.938Z,5.20
2019-03-15T03:05:45.131Z,4.57
2019-03-15T03:08:14.613Z,3.63
2019-03-15T03:10:43.688Z,4.83
2019-03-15T03:13:12.873Z,4.67
2019-03-15T03:15:41.985Z,4.33
2019-03-15T03:18:11.854Z,4.03
2019-03-15T03:20:40.965Z,4.50
2019-03-15T03:23:10.027Z,3.53
2019-03-15T03:25:39.180Z,4.60
2019-03-15T03:28:08.216Z,3.50
2019-03-15T03:30:37.274Z,3.60
2019-03-15T03:33:06.400Z,4.20
2019-03-15T03:35:35.638Z,3.70
2019-03-15T03:38:04.769Z,5.50
2019-03-15T03:40:34.759Z,3.70
2019-03-15T03:43:03.862Z,3.43
2019-03-15T03:45:33.031Z,4.60
2019-03-15T03:48:02.192Z,4.00
2019-03-15T03:50:31.436Z,3.90
2019-03-15T03:53:00.568Z,3.87
2019-03-15T03:55:29.632Z,4.63
2019-03-15T03:57:58.751Z,4.07
2019-03-15T04:00:27.885Z,4.03
2019-03-15T04:02:57.188Z,4.67
2019-03-15T04:05:26.326Z,4.80
2019-03-15T04:07:55.373Z,3.97
2019-03-15T04:10:24.395Z,4.00
2019-03-15T04:12:53.475Z,5.30
2019-03-15T04:15:22.575Z,4.57
2019-03-15T04:17:51.589Z,5.10
2019-03-15T04:20:20.666Z,4.53
2019-03-15T04:22:49.699Z,4.47
2019-03-15T04:25:18.803Z,4.47
2019-03-15T04:27:48.020Z,4.70
2019-03-15T04:30:17.094Z,4.53
2019-03-15T04:32:46.101Z,4.47
2019-03-15T04:35:15.249Z,5.20
2019-03-15T04:37:44.359Z,4.73
2019-03-15T04:40:13.593Z,5.43
2019-03-15T04:42:42.720Z,5.00
2019-03-15T04:45:12.535Z,6.70
2019-03-15T04:47:43.591Z,4.30
2019-03-15T04:50:12.383Z,5.13
2019-03-15T04:52:41.512Z,5.60
2019-03-15T04:55:10.714Z,5.13
2019-03-15T04:57:39.669Z,5.60
2019-03-15T05:00:10.594Z,4.77
2019-03-15T05:02:39.801Z,4.30
2019-03-15T05:05:08.912Z,5.20
2019-03-15T05:07:38.137Z,4.83
2019-03-15T05:10:07.287Z,5.03
2019-03-15T05:12:36.444Z,4.33
2019-03-15T05:15:05.545Z,4.83
2019-03-15T05:17:34.645Z,5.30
2019-03-15T05:20:04.311Z,4.97
2019-03-15T05:22:33.439Z,6.13
2019-03-15T05:25:02.591Z,5.53
2019-03-15T05:27:31.735Z,5.40
2019-03-15T05:30:00.868Z,5.27
2019-03-15T05:32:31.158Z,5.57
2019-03-15T05:35:00.426Z,4.73
2019-03-15T05:37:29.574Z,4.53
2019-03-15T05:39:58.668Z,4.20
2019-03-15T05:42:27.770Z,3.90
2019-03-15T05:44:56.896Z,4.20
2019-03-15T05:47:25.891Z,3.97
2019-03-15T05:49:54.993Z,5.50
2019-03-15T05:52:23.946Z,5.30
2019-03-15T05:54:53.027Z,4.50
2019-03-15T05:57:22.181Z,4.80
2019-03-15T05:59:51.272Z,4.97
2019-03-15T06:02:20.259Z,4.50
2019-03-15T06:04:49.340Z,4.30
2019-03-15T06:07:18.499Z,4.40
2019-03-15T06:09:48.164Z,4.40
2019-03-15T06:12:17.251Z,3.57
2019-03-15T06:14:47.043Z,5.67
2019-03-15T06:17:16.245Z,4.63
2019-03-15T06:19:45.440Z,4.63
2019-03-15T06:22:14.566Z,3.67
2019-03-15T06:24:43.691Z,6.43
2019-03-15T06:27:12.724Z,4.33
2019-03-15T06:29:41.751Z,4.93
2019-03-15T06:32:10.826Z,4.30
2019-03-15T06:34:39.902Z,4.37
2019-03-15T06:37:09.172Z,4.10
2019-03-15T06:39:38.252Z,4.77
2019-03-15T06:42:07.435Z,5.23
2019-03-15T06:44:37.714Z,4.37
2019-03-15T06:47:07.056Z,3.73
2019-03-15T06:49:36.165Z,4.27
2019-03-15T06:52:05.316Z,4.50
2019-03-15T06:54:34.457Z,5.33
2019-03-15T06:57:03.640Z,7.90
2019-03-15T06:59:32.901Z,12.77
2019-03-15T07:02:02.131Z,15.10
2019-03-15T07:04:31.188Z,10.20
2019-03-15T07:07:00.309Z,11.40
2019-03-15T07:09:30.923Z,7.30
2019-03-15T07:12:09.469Z,8.40
2019-03-15T07:14:31.080Z,9.20
2019-03-15T07:17:00.198Z,6.50
2019-03-15T07:19:30.631Z,6.83
2019-03-15T07:21:59.999Z,4.80
2019-03-15T07:24:29.262Z,5.60
2019-03-15T07:27:12.299Z,4.60
2019-03-15T07:29:32.302Z,3.80
2019-03-15T07:32:01.310Z,3.47
2019-03-15T07:34:30.462Z,4.00
2019-03-15T07:36:59.616Z,3.67
2019-03-15T07:39:28.819Z,4.20
2019-03-15T07:41:57.962Z,4.30
2019-03-15T07:44:27.161Z,4.67
2019-03-15T07:46:56.399Z,3.67
2019-03-15T07:49:25.585Z,3.37
2019-03-15T07:51:54.705Z,3.93
2019-03-15T07:54:23.867Z,3.53
2019-03-15T07:56:53.107Z,2.97
2019-03-15T07:59:24.417Z,3.00
2019-03-15T08:01:53.546Z,3.30
2019-03-15T08:04:22.719Z,2.97
2019-03-15T08:06:51.830Z,3.10
2019-03-15T08:09:20.868Z,2.93
2019-03-15T08:11:50.031Z,2.50
2019-03-15T08:14:19.157Z,3.50
2019-03-15T08:16:48.164Z,2.33
2019-03-15T08:19:17.395Z,2.20
2019-03-15T08:21:46.736Z,2.40
2019-03-15T08:24:15.866Z,3.10
2019-03-15T08:26:44.845Z,3.00
2019-03-15T08:29:13.823Z,2.27
2019-03-15T08:31:42.920Z,2.33
2019-03-15T08:34:11.906Z,2.80
2019-03-15T08:36:40.922Z,2.13
2019-03-15T08:39:09.828Z,2.17
2019-03-15T08:41:38.964Z,2.00
2019-03-15T08:44:08.089Z,1.40
2019-03-15T08:46:37.214Z,1.83
2019-03-15T08:49:06.334Z,1.17
2019-03-15T08:51:35.495Z,1.30
2019-03-15T08:54:04.568Z,1.37
2019-03-15T08:56:33.582Z,1.20
2019-03-15T08:59:02.598Z,1.30
2019-03-15T09:01:31.613Z,1.03
2019-03-15T09:04:00.715Z,1.10
2019-03-15T09:06:29.886Z,1.80
2019-03-15T09:08:58.928Z,1.20
2019-03-15T09:11:27.985Z,1.40
2019-03-15T09:13:56.968Z,1.17
2019-03-15T09:16:26.070Z,0.90
2019-03-15T09:18:55.567Z,1.37
2019-03-15T09:21:24.737Z,2.00
2019-03-15T09:23:53.757Z,1.20
2019-03-15T09:26:22.814Z,1.87
2019-03-15T09:28:51.806Z,1.30
2019-03-15T09:31:20.836Z,1.57
2019-03-15T09:33:49.990Z,0.80
2019-03-15T09:36:19.084Z,1.00
2019-03-15T09:38:48.175Z,1.00
2019-03-15T09:41:30.468Z,0.70
2019-03-15T09:43:47.943Z,0.70
2019-03-15T09:46:17.289Z,0.93
2019-03-15T09:48:46.420Z,0.80
2019-03-15T09:51:15.489Z,1.13
2019-03-15T09:53:44.606Z,1.00
2019-03-15T09:56:13.732Z,0.97
2019-03-15T09:58:42.862Z,1.23
2019-03-15T10:01:12.503Z,1.80
2019-03-15T10:03:41.718Z,0.80
2019-03-15T10:06:15.646Z,0.93
2019-03-15T10:08:41.370Z,0.80
2019-03-15T10:11:10.361Z,0.70
2019-03-15T10:13:39.575Z,1.20
2019-03-15T10:16:08.793Z,1.00
2019-03-15T10:18:37.654Z,0.73
2019-03-15T10:21:09.105Z,0.97
2019-03-15T10:23:37.376Z,0.93
2019-03-15T10:26:06.470Z,0.93
2019-03-15T10:28:35.475Z,0.80
2019-03-15T10:31:04.526Z,0.70
2019-03-15T10:33:33.520Z,1.00
2019-03-15T10:36:02.616Z,1.20
2019-03-15T10:38:31.668Z,1.30
2019-03-15T10:41:01.402Z,0.70
2019-03-15T10:43:30.544Z,1.60
2019-03-15T10:45:59.851Z,0.70
2019-03-15T10:48:29.016Z,1.13
2019-03-15T10:50:58.258Z,1.47
2019-03-15T10:53:27.589Z,2.17
2019-03-15T10:56:00.516Z,1.37
2019-03-15T10:58:28.612Z,1.70
2019-03-15T11:00:57.940Z,2.03
2019-03-15T11:03:27.229Z,6.27
2019-03-15T11:05:56.701Z,1.77
2019-03-15T11:08:26.177Z,0.90
2019-03-15T11:10:56.836Z,1.80
2019-03-15T11:13:25.892Z,0.80
2019-03-15T11:15:55.140Z,3.23
2019-03-15T11:18:24.159Z,2.17
2019-03-15T11:20:53.483Z,5.07
2019-03-15T11:23:22.587Z,3.33
2019-03-15T11:25:51.810Z,1.67
2019-03-15T11:28:20.834Z,4.00
2019-03-15T11:30:49.930Z,1.30
2019-03-15T11:33:18.983Z,2.33
2019-03-15T11:35:48.002Z,2.77
2019-03-15T11:38:17.146Z,1.67
2019-03-15T11:40:46.502Z,2.00
2019-03-15T11:43:15.663Z,1.07
2019-03-15T11:45:44.667Z,0.83
2019-03-15T11:48:13.687Z,0.80
2019-03-15T11:50:42.716Z,0.83
2019-03-15T11:53:11.835Z,2.33
2019-03-15T11:55:40.932Z,0.80
2019-03-15T11:58:09.971Z,2.30
2019-03-15T12:00:39.381Z,0.93
2019-03-15T12:03:08.374Z,0.70
2019-03-15T12:05:37.530Z,1.33
2019-03-15T12:08:06.926Z,2.00
2019-03-15T12:10:38.798Z,1.80
2019-03-15T12:13:07.876Z,1.07
2019-03-15T12:15:37.126Z,1.70
2019-03-15T12:18:12.223Z,1.33
2019-03-15T12:20:41.371Z,0.90
2019-03-15T12:23:10.595Z,0.80
2019-03-15T12:25:39.800Z,0.70
2019-03-15T12:28:15.963Z,0.80
2019-03-15T12:30:47.757Z,0.90
2019-03-15T12:33:16.907Z,0.70
2019-03-15T12:35:45.936Z,0.90
2019-03-15T12:38:15.012Z,1.00
2019-03-15T12:40:44.007Z,0.80
2019-03-15T12:43:13.211Z,0.83
2019-03-15T12:45:42.193Z,0.80
2019-03-15T12:48:11.737Z,0.87
2019-03-15T12:50:40.882Z,0.80
2019-03-15T12:53:10.225Z,1.00
2019-03-15T12:55:39.265Z,1.30
2019-03-15T12:58:08.147Z,0.97
2019-03-15T13:00:37.500Z,1.13
2019-03-15T13:03:06.612Z,0.70
2019-03-15T13:05:35.798Z,0.90
2019-03-15T13:08:04.937Z,0.90
2019-03-15T13:10:34.060Z,3.47
2019-03-15T13:13:03.344Z,1.10
2019-03-15T13:15:32.375Z,0.90
2019-03-15T13:18:01.416Z,1.00
2019-03-15T13:20:30.447Z,1.60
2019-03-15T13:22:59.467Z,0.70
2019-03-15T13:25:28.475Z,1.00
2019-03-15T13:27:57.534Z,0.90
2019-03-15T13:30:26.579Z,0.80
2019-03-15T13:32:55.804Z,1.23
2019-03-15T13:35:24.891Z,0.90
2019-03-15T13:37:53.955Z,1.40
2019-03-15T13:40:23.051Z,1.23
2019-03-15T13:42:51.961Z,1.10
2019-03-15T13:45:20.980Z,1.00
2019-03-15T13:47:50.028Z,0.80
2019-03-15T13:50:19.279Z,1.23
2019-03-15T13:52:48.508Z,1.37
2019-03-15T13:55:17.684Z,1.20
2019-03-15T13:57:46.927Z,1.27
2019-03-15T14:00:16.127Z,1.20
2019-03-15T14:02:45.216Z,0.90
2019-03-15T14:05:20.489Z,1.30
2019-03-15T14:07:49.503Z,1.00
2019-03-15T14:10:18.855Z,1.27
2019-03-15T14:12:47.910Z,0.90
2019-03-15T14:15:16.988Z,0.90
2019-03-15T14:17:46.503Z,1.00
2019-03-15T14:20:15.492Z,1.97
2019-03-15T14:22:44.510Z,0.80
2019-03-15T14:25:13.623Z,0.93
2019-03-15T14:27:42.647Z,1.00
2019-03-15T14:30:12.302Z,1.13
2019-03-15T14:32:41.355Z,1.00
2019-03-15T14:35:10.420Z,0.80
2019-03-15T14:37:39.712Z,0.80
2019-03-15T14:40:08.962Z,1.10
2019-03-15T14:42:38.354Z,1.00
2019-03-15T14:45:07.831Z,1.10
2019-03-15T14:47:37.007Z,2.00
2019-03-15T14:50:06.325Z,3.90
2019-03-15T14:52:35.438Z,7.10
2019-03-15T14:55:04.733Z,1.23
2019-03-15T14:57:33.640Z,1.80
2019-03-15T15:00:02.797Z,1.77
2019-03-15T15:02:31.891Z,0.90
2019-03-15T15:05:01.030Z,1.13
2019-03-15T15:07:30.316Z,2.03
2019-03-15T15:09:59.361Z,4.83
2019-03-15T15:12:28.412Z,5.27
2019-03-15T15:14:57.777Z,4.73
2019-03-15T15:17:26.903Z,2.23
2019-03-15T15:19:55.982Z,5.63
2019-03-15T15:22:25.011Z,3.40
2019-03-15T15:24:54.089Z,3.50
2019-03-15T15:27:25.491Z,4.40
2019-03-15T15:29:53.938Z,3.87
2019-03-15T15:32:22.968Z,1.47
2019-03-15T15:34:52.084Z,1.13
2019-03-15T15:37:21.105Z,0.93
2019-03-15T15:39:50.205Z,1.10
2019-03-15T15:42:19.649Z,0.90
2019-03-15T15:44:48.714Z,1.47
2019-03-15T15:47:17.710Z,1.30
2019-03-15T15:49:46.692Z,6.60
2019-03-15T15:52:15.725Z,2.20
2019-03-15T15:54:44.842Z,1.23
2019-03-15T15:57:13.941Z,1.47
2019-03-15T15:59:43.015Z,1.60
2019-03-15T16:02:12.035Z,1.50
2019-03-15T16:04:41.070Z,1.10
2019-03-15T16:07:10.167Z,1.40
2019-03-15T16:09:39.514Z,1.10
2019-03-15T16:12:08.639Z,1.20
2019-03-15T16:14:38.036Z,1.30
2019-03-15T16:17:07.171Z,1.30
2019-03-15T16:19:39.393Z,1.20
2019-03-15T16:22:08.444Z,1.10
2019-03-15T16:24:37.652Z,1.30
2019-03-15T16:27:06.686Z,1.40
2019-03-15T16:29:38.847Z,0.90
2019-03-15T16:32:08.005Z,2.17
2019-03-15T16:34:37.358Z,1.63
2019-03-15T16:37:06.383Z,2.27
2019-03-15T16:39:35.659Z,2.17
2019-03-15T16:42:04.813Z,1.20
2019-03-15T16:44:33.935Z,2.80
2019-03-15T16:47:03.060Z,2.37
2019-03-15T16:49:32.077Z,2.97
2019-03-15T16:52:01.126Z,4.27
2019-03-15T16:54:30.636Z,1.67
2019-03-15T16:56:59.693Z,1.90
2019-03-15T16:59:28.717Z,2.40
2019-03-15T17:01:57.727Z,3.47
2019-03-15T17:04:26.856Z,1.43
2019-03-15T17:06:55.806Z,1.40
2019-03-15T17:09:24.985Z,1.10
2019-03-15T17:11:53.977Z,1.00
2019-03-15T17:14:25.734Z,1.20
2019-03-15T17:16:53.830Z,1.20
2019-03-15T17:19:22.892Z,1.20
2019-03-15T17:21:52.129Z,1.70
2019-03-15T17:24:21.492Z,1.40
2019-03-15T17:26:51.601Z,1.60
2019-03-15T17:29:21.185Z,1.70
2019-03-15T17:31:50.470Z,1.33
2019-03-15T17:34:19.705Z,1.83
2019-03-15T17:36:49.038Z,3.17
2019-03-15T17:39:18.330Z,1.73
2019-03-15T17:41:47.449Z,2.33
2019-03-15T17:44:16.763Z,1.17
2019-03-15T17:46:46.074Z,2.23
2019-03-15T17:49:15.359Z,2.03
2019-03-15T17:51:44.626Z,1.30
2019-03-15T17:54:13.755Z,1.70
2019-03-15T17:56:43.114Z,2.30
2019-03-15T17:59:13.009Z,1.70
2019-03-15T18:01:42.535Z,1.70
2019-03-15T18:04:12.903Z,1.50
2019-03-15T18:06:42.464Z,1.40
2019-03-15T18:09:11.819Z,2.43
2019-03-15T18:11:41.253Z,3.50
2019-03-15T18:14:10.644Z,1.10
2019-03-15T18:16:39.883Z,1.20
2019-03-15T18:19:09.211Z,1.30
2019-03-15T18:21:39.072Z,1.17
2019-03-15T18:24:08.729Z,1.20
2019-03-15T18:26:38.065Z,1.50
2019-03-15T18:29:07.271Z,1.40
2019-03-15T18:31:36.758Z,1.00
2019-03-15T18:34:06.653Z,1.30
2019-03-15T18:36:46.110Z,2.40
2019-03-15T18:39:17.754Z,2.80
2019-03-15T18:41:50.422Z,1.80
2019-03-15T18:44:22.411Z,1.00
2019-03-15T18:46:49.094Z,1.27
2019-03-15T18:49:18.789Z,1.70
2019-03-15T18:51:51.662Z,1.50
2019-03-15T18:54:20.773Z,2.40
2019-03-15T18:56:49.916Z,4.83
2019-03-15T18:59:19.013Z,1.83
2019-03-15T19:01:48.088Z,1.00
2019-03-15T19:04:17.097Z,6.60
2019-03-15T19:06:46.367Z,15.63
2019-03-15T19:09:16.094Z,7.53
2019-03-15T19:11:45.397Z,2.00
2019-03-15T19:14:14.826Z,2.50
2019-03-15T19:16:43.819Z,1.47
2019-03-15T19:19:12.903Z,2.90
2019-03-15T19:21:41.984Z,3.80
2019-03-15T19:24:11.129Z,2.77
2019-03-15T19:26:40.170Z,3.10
2019-03-15T19:29:09.199Z,2.27
2019-03-15T19:31:38.271Z,1.37
2019-03-15T19:34:07.324Z,2.23
2019-03-15T19:36:36.554Z,1.57
2019-03-15T19:39:11.046Z,2.53
2019-03-15T19:41:40.168Z,1.70
2019-03-15T19:44:09.678Z,1.10
2019-03-15T19:46:38.933Z,1.50
2019-03-15T19:49:08.095Z,1.77
2019-03-15T19:51:37.307Z,1.60
2019-03-15T19:54:06.566Z,2.97
2019-03-15T19:56:35.772Z,1.60
2019-03-15T19:59:05.524Z,2.20
2019-03-15T20:01:35.508Z,1.30
2019-03-15T20:04:04.740Z,1.70
2019-03-15T20:06:33.867Z,2.20
2019-03-15T20:09:04.878Z,2.87
2019-03-15T20:11:34.100Z,1.13
2019-03-15T20:14:06.461Z,2.97
2019-03-15T20:16:35.720Z,1.30
2019-03-15T20:19:05.220Z,1.30
2019-03-15T20:21:34.448Z,1.30
2019-03-15T20:24:03.677Z,1.20
2019-03-15T20:26:32.778Z,1.60
2019-03-15T20:29:01.946Z,1.57
2019-03-15T20:31:31.206Z,1.30
2019-03-15T20:34:00.331Z,1.60
2019-03-15T20:36:29.687Z,0.97
2019-03-15T20:38:58.919Z,2.40
2019-03-15T20:41:28.068Z,1.10
2019-03-15T20:44:00.433Z,1.30
2019-03-15T20:46:35.682Z,1.30
2019-03-15T20:48:59.970Z,1.33
2019-03-15T20:51:29.099Z,1.30
2019-03-15T20:53:58.469Z,1.30
2019-03-15T20:56:27.977Z,1.00
2019-03-15T20:58:57.163Z,1.20
2019-03-15T21:01:26.525Z,0.80
2019-03-15T21:03:56.491Z,1.10
2019-03-15T21:06:25.878Z,1.10
2019-03-15T21:08:55.145Z,1.13
2019-03-15T21:11:24.337Z,1.10
2019-03-15T21:13:53.553Z,1.20
2019-03-15T21:16:22.812Z,0.97
2019-03-15T21:18:52.377Z,1.27
2019-03-15T21:21:21.591Z,1.20
2019-03-15T21:23:50.840Z,1.10
2019-03-15T21:26:20.006Z,1.10
2019-03-15T21:28:49.097Z,1.27
2019-03-15T21:31:18.325Z,0.93
2019-03-15T21:33:47.474Z,1.00
2019-03-15T21:36:16.553Z,1.03
2019-03-15T21:38:48.743Z,1.30
2019-03-15T21:41:18.056Z,1.20
2019-03-15T21:43:47.159Z,1.07
2019-03-15T21:46:16.233Z,1.00
2019-03-15T21:48:45.441Z,1.80
2019-03-15T21:51:14.646Z,1.00
2019-03-15T21:53:43.744Z,1.10
2019-03-15T21:56:12.810Z,1.67
2019-03-15T21:58:41.951Z,1.00
2019-03-15T22:01:11.025Z,1.13
2019-03-15T22:03:40.113Z,1.90
2019-03-15T22:06:09.117Z,0.90
2019-03-15T22:08:38.224Z,1.13
2019-03-15T22:11:20.114Z,1.40
2019-03-15T22:13:38.313Z,0.90
2019-03-15T22:16:07.380Z,0.83
2019-03-15T22:18:36.358Z,0.80
2019-03-15T22:21:05.444Z,0.90
2019-03-15T22:23:34.901Z,0.90
2019-03-15T22:26:03.951Z,0.90
2019-03-15T22:28:33.131Z,1.00
2019-03-15T22:31:15.509Z,1.00
2019-03-15T22:33:33.259Z,1.00
2019-03-15T22:36:02.380Z,0.90
2019-03-15T22:38:32.139Z,0.93
2019-03-15T22:41:01.121Z,1.00
2019-03-15T22:43:30.124Z,1.00
2019-03-15T22:45:59.279Z,1.10
2019-03-15T22:48:28.476Z,0.83
2019-03-15T22:50:57.500Z,0.93
2019-03-15T22:53:26.674Z,1.00
2019-03-15T22:55:58.758Z,1.10
2019-03-15T22:58:27.730Z,1.00
2019-03-15T23:00:56.774Z,0.80
2019-03-15T23:03:25.815Z,0.80
2019-03-15T23:05:54.865Z,0.80
2019-03-15T23:08:24.008Z,0.90
2019-03-15T23:10:53.092Z,0.97
2019-03-15T23:13:22.497Z,0.70
2019-03-15T23:15:51.517Z,0.90
2019-03-15T23:18:20.584Z,1.00
2019-03-15T23:20:49.639Z,1.17
2019-03-15T23:23:23.739Z,0.97
2019-03-15T23:25:49.599Z,1.50
2019-03-15T23:28:18.713Z,0.90
2019-03-15T23:30:47.661Z,1.27
2019-03-15T23:33:16.803Z,0.90
2019-03-15T23:35:53.756Z,0.90
2019-03-15T23:38:16.596Z,0.67
2019-03-15T23:40:46.949Z,1.00
2019-03-15T23:43:15.912Z,0.80
2019-03-15T23:45:45.013Z,1.00
2019-03-15T23:48:13.977Z,1.00
2019-03-15T23:50:43.377Z,1.07
2019-03-15T23:53:12.415Z,0.90
2019-03-15T23:55:41.418Z,0.90
2019-03-15T23:58:10.477Z,0.93
